Track Удовиченко Игорь

Time Latitude Longitude Accuracy (66% radius in meters) Altitude (meters) Speed (km/hour) Bearing (degrees) Battery (%) GPS flag
06:21:50 57.206806 60.122252 0 0 0 0 1 delete
06:21:49 57.206803 60.122255 0 0 0 0 1 delete
06:21:48 57.206795 60.122259 0 0 0 0 1 delete
06:21:47 57.206780 60.122267 0 0 0 0 1 delete
06:21:46 57.206759 60.122275 0 0 0 0 1 delete
06:21:45 57.206739 60.122289 0 0 0 0 1 delete
06:21:44 57.206716 60.122311 0 0 0 0 1 delete
06:21:43 57.206695 60.122344 0 0 0 0 1 delete
06:21:42 57.206673 60.122379 0 0 0 0 1 delete
06:21:41 57.206651 60.122413 0 0 0 0 1 delete
06:21:40 57.206629 60.122443 0 0 0 0 1 delete
06:21:39 57.206601 60.122467 0 0 0 0 1 delete
06:21:38 57.206570 60.122477 0 0 0 0 1 delete
06:21:37 57.206537 60.122468 0 0 0 0 1 delete
06:21:36 57.206507 60.122446 0 0 0 0 1 delete
06:21:35 57.206477 60.122418 0 0 0 0 1 delete
06:21:34 57.206445 60.122391 0 0 0 0 1 delete
06:21:33 57.206413 60.122362 0 0 0 0 1 delete
06:21:32 57.206378 60.122330 0 0 0 0 1 delete
06:21:31 57.206340 60.122294 0 0 0 0 1 delete
06:21:30 57.206299 60.122252 0 0 0 0 1 delete
06:21:29 57.206256 60.122207 0 0 0 0 1 delete
06:21:28 57.206214 60.122163 0 0 0 0 1 delete
06:21:27 57.206173 60.122122 0 0 0 0 1 delete
06:21:26 57.206132 60.122083 0 0 0 0 1 delete
06:21:25 57.206094 60.122043 0 0 0 0 1 delete
06:21:24 57.206055 60.122006 0 0 0 0 1 delete
06:21:23 57.206019 60.121970 0 0 0 0 1 delete
06:21:22 57.205982 60.121938 0 0 0 0 1 delete
06:21:21 57.205945 60.121907 0 0 0 0 1 delete
06:21:20 57.205909 60.121880 0 0 0 0 1 delete
06:21:19 57.205871 60.121854 0 0 0 0 1 delete
06:21:18 57.205835 60.121827 0 0 0 0 1 delete
06:21:17 57.205797 60.121796 0 0 0 0 1 delete
06:21:16 57.205762 60.121761 0 0 0 0 1 delete
06:21:15 57.205726 60.121723 0 0 0 0 1 delete
06:21:14 57.205693 60.121683 0 0 0 0 1 delete
06:21:13 57.205660 60.121642 0 0 0 0 1 delete
06:21:12 57.205626 60.121600 0 0 0 0 1 delete
06:21:11 57.205596 60.121560 0 0 0 0 1 delete
06:21:10 57.205566 60.121519 0 0 0 0 1 delete
06:21:09 57.205536 60.121476 0 0 0 0 1 delete
06:21:08 57.205506 60.121426 0 0 0 0 1 delete
06:21:07 57.205479 60.121375 0 0 0 0 1 delete
06:21:06 57.205458 60.121322 0 0 0 0 1 delete
06:21:05 57.205439 60.121271 0 0 0 0 1 delete
06:21:04 57.205421 60.121217 0 0 0 0 1 delete
06:21:03 57.205401 60.121166 0 0 0 0 1 delete
06:21:02 57.205381 60.121117 0 0 0 0 1 delete
06:21:01 57.205361 60.121073 0 0 0 0 1 delete